Flight Track Log - Related Links

Times and Time Zones

All times are in EDT time to prevent confusion due to time zone crossing. See the RPA4888 flight status page for this flight to view local times or setup timezone preferences in your user account.

Time Position Orientation Groundspeed Altitude Reporting Facility
EDT Latitude Longitude Course Direction KTS MPH feet Rate Location/Type
Tue 12:55:44 AM 38.9000 -77.4667 169° South 176 203 2,400  Level Potomac TRACON
Tue 12:56:44 AM 38.8333 -77.4500 169° South 228 262 3,800 1,550 Climbing Potomac TRACON
Tue 12:57:44 AM 38.7667 -77.4667 191° South 257 296 5,500 1,600 Climbing Potomac TRACON
Tue 12:58:44 AM 38.7000 -77.4667 180° South 262 302 7,000 750 Climbing Potomac TRACON
Tue 12:59:44 AM 38.6167 -77.4667 180° South 265 305 7,000  Level Potomac TRACON
Tue 01:01:00 AM 38.5386 -77.4078 150° Southeast  Level Estimated
Tue 01:02:51 AM 38.4000 -77.4500 151° Southeast 265 305 7,000  Level Potomac TRACON
Tue 01:04:00 AM 38.3316 -77.3919 146° Southeast  Level Estimated
Tue 01:05:21 AM 38.2333 -77.3333 146° Southeast 272 313 7,000  Level Potomac TRACON
Tue 01:06:21 AM 38.1667 -77.2833 149° Southeast 268 308 7,000  Level Potomac TRACON
Tue 01:07:09 AM 38.1167 -77.2500 152° Southeast 267 307 7,000  Level Potomac TRACON
Tue 01:08:00 AM 38.1425 -77.0136 151° Southeast  Level FlightAware Approximate
Tue 01:08:39 AM 38.0333 -77.1667 142° Southeast 268 308 7,000  Level Potomac TRACON
Tue 01:09:39 AM 37.9667 -77.1167 149° Southeast 267 307 7,000  Level Potomac TRACON
Tue 01:10:39 AM 37.9167 -77.0667 142° Southeast 266 306 7,000  Level Potomac TRACON
Tue 01:11:27 AM 37.8667 -77.0167 142° Southeast 268 308 7,000  Level Potomac TRACON
Tue 01:12:39 AM 37.7833 -76.9500 148° Southeast 275 316 7,000  Level Potomac TRACON
Tue 01:13:39 AM 37.7167 -76.9000 149° Southeast 277 319 7,000  Level Potomac TRACON
Tue 01:14:27 AM 37.6667 -76.8667 152° Southeast 275 316 7,000  Level Potomac TRACON
Tue 01:15:27 AM 37.6000 -76.8000 142° Southeast 278 320 7,000  Level Potomac TRACON
Tue 01:16:21 AM 37.5500 -76.7500 142° Southeast 279 321 7,000  Level Potomac TRACON
Tue 01:17:21 AM 37.4833 -76.6833 142° Southeast 282 325 7,000  Level Potomac TRACON
Tue 01:18:09 AM 37.4500 -76.6333 130° Southeast 280 322 7,000  Level Potomac TRACON
Tue 01:19:09 AM 37.3833 -76.5667 142° Southeast 284 327 7,000  Level Potomac TRACON
Tue 01:20:03 AM 37.3333 -76.5167 142° Southeast 281 323 7,000  Level Potomac TRACON
Tue 01:22:00 AM 37.2131 -76.4265 149° Southeast  Level FlightAware Approximate
Tue 01:29:00 AM 36.8946 -76.2012 180° South  Level Estimated
Tue 01:30:00 AM 36.8946 -76.2012 180° South  Level Estimated
Tue 01:31:00 AM 36.8946 -76.2012 180° South  Level Estimated

Login

Don't have an account? Register now (free) for customized features, flight alerts, and more!